developed with YouTube
AIRPORT - Sal, Cape Verde - Departure SID (Amílcar Cabral International Airport)

AIRPORT - Sal, Cape Verde - Departure SID (Amílcar Cabral International Airport)

  • Order:
  • Duration: 2:09
  • Updated: 19 Apr 2015
  • views: 7097
videos
Amílcar Cabral International Airport (SID) is the biggest and most important airport of the Cape Verde islands and situated close to Espargos on the island Sal. The video shows the departure hall. Check out this video guide to Sal, Cape Verde: http://eywalk.com/l/FWzKQhWoKQA/ Follow us on Facebook: https://www.facebook.com/pages/Cabo-Verde-eywalk
https://wn.com/Airport_Sal,_Cape_Verde_Departure_Sid_(Amílcar_Cabral_International_Airport)
Thomson Airways Landing Boa Vista, Cape Verde

Thomson Airways Landing Boa Vista, Cape Verde

  • Order:
  • Duration: 2:38
  • Updated: 26 Mar 2013
  • views: 16926
videos https://wn.com/Thomson_Airways_Landing_Boa_Vista,_Cape_Verde
Departure Lounge and Duty Free at Boa Vista Airport, Cape Verde

Departure Lounge and Duty Free at Boa Vista Airport, Cape Verde

  • Order:
  • Duration: 1:17
  • Updated: 20 Apr 2017
  • views: 929
videos
or more appropriately Aristides Pereira International Airport. The Departures area can accommodate approximately one flight load. The Duty Free shop is quite small with a limited selection. A brief look at Rabil village and the passport control queue of the recent arrivals can be seen
https://wn.com/Departure_Lounge_And_Duty_Free_At_Boa_Vista_Airport,_Cape_Verde
Transavia Landing Sal - Cabo Verde / Kaapverdië (full island view)

Transavia Landing Sal - Cabo Verde / Kaapverdië (full island view)

  • Order:
  • Duration: 12:37
  • Updated: 23 Mar 2013
  • views: 98581
videos
Amazing view of sunny and warm Sal. Especially when you arrive in middle of a Dutch cold winter. First to see is the rough and deserted north coast. Then the salt mines, or Pedra Lume, with behind the capital Espargos and the Airport. Eventually we can see Santa Maria, this is were all tourist will celebrate there holidays on Sal. Arrival time 11.15 am. Flight Time 6.15 hr. Seat 8F Cabin view at 11:00 Transavia Boeing 737-8K2(WL) HV-HSF First Flight April 1st 2012 Camera Sony DSC-WX7
https://wn.com/Transavia_Landing_Sal_Cabo_Verde_Kaapverdië_(Full_Island_View)
Boa Vista Cape Verde Airport Landing 19/05/2016

Boa Vista Cape Verde Airport Landing 19/05/2016

  • Order:
  • Duration: 6:01
  • Updated: 27 May 2016
  • views: 1717
videos
Boa Vista Cape Verde Airport Landing 19/05/2016 Thomson flight Tom366 from Manchester Airport on Thursday 19th May 2016
https://wn.com/Boa_Vista_Cape_Verde_Airport_Landing_19_05_2016
Boa Vista Cape Verde Airport Taxi & Takeoff  26/05/2016 Thomson Airways

Boa Vista Cape Verde Airport Taxi & Takeoff 26/05/2016 Thomson Airways

  • Order:
  • Duration: 7:01
  • Updated: 27 May 2016
  • views: 1130
videos
Boa Vista Cape Verde Airport Taxi & Takeoff 26/05/2016 Thomson Airways flight no TOM367 to Manchester Airport on Thursday 26th May 2016
https://wn.com/Boa_Vista_Cape_Verde_Airport_Taxi_Takeoff_26_05_2016_Thomson_Airways
Landing Cape Verde, Sal island

Landing Cape Verde, Sal island

  • Order:
  • Duration: 6:16
  • Updated: 10 Oct 2012
  • views: 4931
videos
Landing Cape Verde, Sal island, Amílcar Cabral International Airport, ILS approach Runway 01, with Airtrafic controler from IVAO. Company Lusitaniair VA, aircraft Boeing 737-800NG, registration CS-TVU
https://wn.com/Landing_Cape_Verde,_Sal_Island
Cape Verde landing

Cape Verde landing

  • Order:
  • Duration: 6:08
  • Updated: 04 Mar 2017
  • views: 842
videos
Great landing on a great island Sal is a place to visit for sun beaches and warm welcomes. it comes complete with an "Africa simulator" i.e go on the road trip round the island, desert, serengetti, mirages, salt lakes, lots of things to experience on this wonderful 15 mile ling island.
https://wn.com/Cape_Verde_Landing
walking on airport tarmac towards flight TOM425

walking on airport tarmac towards flight TOM425

  • Order:
  • Duration: 1:59
  • Updated: 19 Apr 2017
  • views: 378
videos https://wn.com/Walking_On_Airport_Tarmac_Towards_Flight_Tom425
arriving with the TUI coach at Boa Vista airport for the return fight to Manchester

arriving with the TUI coach at Boa Vista airport for the return fight to Manchester

  • Order:
  • Duration: 1:05
  • Updated: 21 Apr 2017
  • views: 488
videos
Aristides Pereira International Airport is a small airport on a small island -Boa Vista -which is one of 10 islands making up the Republic of Cape Verde.
https://wn.com/Arriving_With_The_Tui_Coach_At_Boa_Vista_Airport_For_The_Return_Fight_To_Manchester
São Vicente   Landing   Arrival   Airport

São Vicente Landing Arrival Airport

  • Order:
  • Duration: 1:33
  • Updated: 29 Jan 2017
  • views: 246
videos
This video gives you an overview of the final approach at São Vicente island in Cape Verde. You will see the approach, Cesário Évora Airport, the visa line and get and get a good view of what to expect when you arrive at São Vicente.
https://wn.com/SãO_Vicente_Landing_Arrival_Airport
Landing on Praia International Airport Cape Verde

Landing on Praia International Airport Cape Verde

  • Order:
  • Duration: 0:45
  • Updated: 28 Feb 2010
  • views: 3783
videos
Landing on Praia International Airport Aterragem no Aeroporto internacional da Praia Cabo Verde
https://wn.com/Landing_On_Praia_International_Airport_Cape_Verde
AIRPORT - Sal, Cape Verde Islands - Imigration and Visa process at Amilcar Cabral INTL (SID)

AIRPORT - Sal, Cape Verde Islands - Imigration and Visa process at Amilcar Cabral INTL (SID)

  • Order:
  • Duration: 0:43
  • Updated: 20 Apr 2015
  • views: 2164
videos
When you arrive on Sal, Cape Verde Islands (Amilcar Cabral INTL (SID)), you will need a valid passport and a visa for immigration. The visa costs 2.500 Escudos or 25 EUR (03/2015) and can also be bought at the airport after landing. From the airport is is then a 15 minutes and 15 EUR ride to Santa Maria, where most of the tourists stay. Check out this video guide to Sal, Cape Verde: http://eywalk.com/l/FWzKQhWoKQA/ Follow us on Facebook: https://www.facebook.com/pages/Cabo-Verde-eywalk
https://wn.com/Airport_Sal,_Cape_Verde_Islands_Imigration_And_Visa_Process_At_Amilcar_Cabral_Intl_(Sid)
A320-200 Flight TP1554 departure from St.Vincent Cape Verde

A320-200 Flight TP1554 departure from St.Vincent Cape Verde

  • Order:
  • Duration: 2:55
  • Updated: 26 Jan 2017
  • views: 336
videos
TAP operated flight from São Pedro, St.Vincent, Cape Verde. Cape Verde is a small island region off the west coast of Africa near the coast of the western Sahara desert
https://wn.com/A320_200_Flight_Tp1554_Departure_From_St.Vincent_Cape_Verde
Flight @ BOA VISTA - Rabil airport (BVC/GVBA) to SAL - airport (SID/GVAC) Capo Verde # Cockpit View

Flight @ BOA VISTA - Rabil airport (BVC/GVBA) to SAL - airport (SID/GVAC) Capo Verde # Cockpit View

  • Order:
  • Duration: 11:20
  • Updated: 04 Sep 2015
  • views: 2875
videos
- Cockpit View of Full Flight between Boa Vista airport (BVC) and Sal airport (SID) - 12 min of flight - B737-800 - Go pro HD2 More videos on www.aeroworldpictures.com
https://wn.com/Flight_Boa_Vista_Rabil_Airport_(Bvc_Gvba)_To_Sal_Airport_(Sid_Gvac)_Capo_Verde_Cockpit_View
Landing at Sao Vicente Airport, Cape Verde

Landing at Sao Vicente Airport, Cape Verde

  • Order:
  • Duration: 1:09
  • Updated: 30 Jul 2012
  • views: 3394
videos
https://wn.com/Landing_At_Sao_Vicente_Airport,_Cape_Verde
Landing at rabil boa Vista cape Verde airport July 2017

Landing at rabil boa Vista cape Verde airport July 2017

  • Order:
  • Duration: 6:01
  • Updated: 14 Jul 2017
  • views: 77
videos
Landing at rabil boa Vista cape Verde airport July 2017
https://wn.com/Landing_At_Rabil_Boa_Vista_Cape_Verde_Airport_July_2017
Travel Service B738: A short flight from Boa Vista to Sal (Cape Verde)

Travel Service B738: A short flight from Boa Vista to Sal (Cape Verde)

  • Order:
  • Duration: 20:53
  • Updated: 27 Jul 2016
  • views: 3558
videos
Travel Service Boeing 737-800 (OK-TSO) performing a short flight (refueling stop/crew change) from Boa Vista ( RABIL ARISTIDES PEREIRA INTL GVBA rwy 03) to Sal (Amílcar Cabral INTL GVAC rwy 01). The flight itself took only about 10 minutes. The cruising altitude was 6000 ft. Final destination: Prague, Vaclav Havel Airport (LKPR). By coincidence, the Czech Gov. Flying Service A319, carrying olympic hopefuls to Rio, made a refueling stop at Sal as well. Metars GVBA: GVBA 261500Z 04012KT 9999 BKN015 29/20 Q1014 NOSIG= GVBA 261600Z 04010KT 9999 BKN015 28/21 Q1013 NOSIG= GVBA 261700Z 06012KT 9999 BKN015 28/21 Q1013 NOSIG= GVBA 261800Z 05013KT 9999 BKN015 27/22 Q1013 NOSIG= Metars GVAC: METAR GVAC 261500Z 07011KT 9999 BKN014 29/20 Q1013 NOSIG= METAR GVAC 261600Z 08011KT 9999 BKN014 29/20 Q1012 NOSIG= METAR GVAC 261700Z 06010KT 9999 BKN014 27/21 Q1012 NOSIG= METAR GVAC 261800Z 07013KT 9999 BKN014 BKN016 27/21 Q1012 NOSIG= METAR GVAC 261900Z 06011KT 9999 SCT014 BKN016 26/22 Q1012 NOSIG=
https://wn.com/Travel_Service_B738_A_Short_Flight_From_Boa_Vista_To_Sal_(Cape_Verde)
Boeing 737 Departure from Amilcar Cabral Airport (Cape Verde)

Boeing 737 Departure from Amilcar Cabral Airport (Cape Verde)

  • Order:
  • Duration: 3:28
  • Updated: 13 Mar 2011
  • views: 2215
videos https://wn.com/Boeing_737_Departure_From_Amilcar_Cabral_Airport_(Cape_Verde)
SID - Amilcar Cabral - International Airport - Sal Island - Cape Verde

SID - Amilcar Cabral - International Airport - Sal Island - Cape Verde

  • Order:
  • Duration: 0:36
  • Updated: 19 May 2012
  • views: 1684
videos https://wn.com/Sid_Amilcar_Cabral_International_Airport_Sal_Island_Cape_Verde
Travel Service B738: A firm landing at Rabil (Boa Vista/Cape Verde) Rwy 03

Travel Service B738: A firm landing at Rabil (Boa Vista/Cape Verde) Rwy 03

  • Order:
  • Duration: 18:49
  • Updated: 27 Jul 2016
  • views: 1211
videos
Travel Service B737-800 (OK-TSH) performing a visual NDB circle to land approach at RABIL/ARISTIDES PEREIRA INTL (GVBA), Boa Vista/Cape Verde, runway 03. Origin: Prague,LKPR. Metars GVBA: METAR GVBA 151300Z 31007KT 9999 SCT015 28/22 Q1015 NOSIG= METAR GVBA 151500Z 30008KT 9999 SCT015 SCT100 29/22 Q1014NOSIG= METAR GVBA 151600Z 29010KT 9999 BKN015 29/22 Q1014 NOSIG= METAR GVBA 151700Z 27005KT 9999 BKN015 28/21 Q1014 NOSIG= METAR GVBA 151800Z NIL=
https://wn.com/Travel_Service_B738_A_Firm_Landing_At_Rabil_(Boa_Vista_Cape_Verde)_Rwy_03
Thomson B767-300 Cabin Tour+ Onboard Takeoff from Manchester Airport-23rd July 2016

Thomson B767-300 Cabin Tour+ Onboard Takeoff from Manchester Airport-23rd July 2016

  • Order:
  • Duration: 19:41
  • Updated: 31 Aug 2016
  • views: 34515
videos
On July 23rd 2016 we travelled to Paphos International Airport in Cyprus aboard a Thomson B767-300 registered G-OBYF. The trip onboard the 767 was very pleasant with the flight time just over 4 hours. Luckily we were able to use the inflight entertainment with a selection of movies and games. I was seated in seat 27A, offering a nice view of the wing and views below. It was nice to be onboard the historic 767 and it is a great aircraft to fly on. Quick Info: Airline: Thomson Airways Aircraft: Boeing 767-300 Registration: G-OBYF Seat: 26A Route: Manchester (MAN)- Papho (PFO) We have a website with videos, pictures and blogs... http://mtaviation.weebly.com/ We also have a Flickr page with all of our photos... https://www.flickr.com/photos/1214743... For your aviation model and collectable needs, look no further than http://gsmodels.co.uk/ Thanks for Watching Please Like, Comment and Subscribe Please Watch Our Other Videos
https://wn.com/Thomson_B767_300_Cabin_Tour_Onboard_Takeoff_From_Manchester_Airport_23Rd_July_2016
Cape Verde Airport

Cape Verde Airport

  • Order:
  • Duration: 0:11
  • Updated: 18 Aug 2014
  • views: 101
videos
Outside airport never seen before and it's brilliant.
https://wn.com/Cape_Verde_Airport